Time;durP1;ratioP1;P1;durP2;ratioP2;P2;SDS_P1;SDS_P2;PMS_P1;PMS_P2;Temp;Humidity;BMP_temperature;BMP_pressure;BME280_temperature;BME280_humidity;BME280_pressure;Samples;Min_cycle;Max_cycle;Signal;HPM_P1;HPM_P2
2023/04/16 00:00:14;;;;;;;25.93;2.77;;;;;;;16.58;nan;101507.09;4867241;29;20460;-86
2023/04/16 00:02:44;;;;;;;15.23;4.10;;;;;;;16.65;nan;101509.03;4869097;29;20458;-86
2023/04/16 00:05:13;;;;;;;14.43;4.27;;;;;;;16.62;nan;101490.13;4912880;29;20492;-85
2023/04/16 00:07:41;;;;;;;11.87;3.17;;;;;;;16.62;nan;101496.47;4870883;29;20525;-86
2023/04/16 00:10:09;;;;;;;15.43;3.87;;;;;;;16.62;nan;101492.88;4901152;29;20860;-86
2023/04/16 00:12:38;;;;;;;10.70;2.57;;;;;;;16.66;nan;101494.19;4899883;29;20488;-85
2023/04/16 00:15:06;;;;;;;16.30;3.90;;;;;;;16.69;nan;101504.78;4882673;29;20450;-86
2023/04/16 00:17:34;;;;;;;11.87;3.87;;;;;;;16.66;nan;101496.94;4869912;29;20977;-86
2023/04/16 00:20:02;;;;;;;22.13;4.23;;;;;;;16.68;nan;101501.19;4885855;29;20457;-86
2023/04/16 00:22:30;;;;;;;20.43;3.67;;;;;;;16.66;nan;101488.66;4870580;29;20834;-85
2023/04/16 00:24:57;;;;;;;12.77;3.43;;;;;;;16.65;nan;101493.34;4885737;29;20467;-86
2023/04/16 00:27:25;;;;;;;16.83;3.80;;;;;;;16.61;nan;101492.03;4885738;29;20515;-86
2023/04/16 00:29:54;;;;;;;24.67;4.37;;;;;;;16.59;nan;101495.00;4870196;29;20896;-87
2023/04/16 00:32:22;;;;;;;11.30;3.73;;;;;;;16.55;nan;101488.19;4901247;29;20497;-85
2023/04/16 00:34:50;;;;;;;14.67;2.90;;;;;;;16.51;nan;101486.13;4885702;29;20947;-85
2023/04/16 00:37:18;;;;;;;18.57;3.60;;;;;;;16.46;nan;101478.47;4870307;29;20464;-86
2023/04/16 00:39:46;;;;;;;23.20;3.47;;;;;;;16.47;nan;101484.84;4900859;29;20457;-86
2023/04/16 00:42:14;;;;;;;14.07;3.40;;;;;;;16.47;nan;101491.22;4884796;29;20820;-85
2023/04/16 00:44:43;;;;;;;17.70;3.57;;;;;;;16.39;nan;101472.09;4900323;29;20972;-85
2023/04/16 00:47:11;;;;;;;12.50;3.30;;;;;;;16.37;nan;101471.47;4900584;29;20452;-85
2023/04/16 00:49:38;;;;;;;13.70;3.03;;;;;;;16.37;nan;101478.91;4885512;29;20461;-86
2023/04/16 00:52:06;;;;;;;16.83;4.37;;;;;;;16.35;nan;101473.63;4881371;29;20992;-85
2023/04/16 00:54:34;;;;;;;13.60;3.20;;;;;;;16.29;nan;101470.84;4881951;29;20460;-86
2023/04/16 00:57:01;;;;;;;15.63;4.83;;;;;;;16.32;nan;101475.94;4866661;29;20466;-85
2023/04/16 00:59:30;;;;;;;10.47;3.40;;;;;;;16.22;nan;101470.84;4875828;29;20461;-85
2023/04/16 01:01:58;;;;;;;11.40;3.17;;;;;;;16.12;nan;101453.91;4885261;29;20457;-85
2023/04/16 01:04:29;;;;;;;14.37;2.80;;;;;;;16.13;nan;101461.13;4870668;29;20449;-85
2023/04/16 01:06:57;;;;;;;13.47;3.27;;;;;;;16.08;nan;101464.50;4885204;29;20963;-87
2023/04/16 01:09:25;;;;;;;12.07;3.03;;;;;;;16.05;nan;101456.66;4868781;29;20461;-85
2023/04/16 01:11:53;;;;;;;12.37;3.17;;;;;;;16.00;nan;101456.44;4881566;29;20480;-85
2023/04/16 01:14:21;;;;;;;13.40;3.77;;;;;;;15.98;nan;101457.69;4899953;29;20496;-86
2023/04/16 01:16:49;;;;;;;17.83;3.17;;;;;;;15.95;nan;101464.50;4916845;29;20448;-85
2023/04/16 01:19:17;;;;;;;18.17;4.53;;;;;;;15.88;nan;101452.63;4884550;29;20504;-85
2023/04/16 01:21:45;;;;;;;24.43;4.60;;;;;;;15.92;nan;101458.56;4884272;29;20457;-85
2023/04/16 01:24:13;;;;;;;21.23;4.07;;;;;;;15.92;nan;101442.88;4884965;29;20457;-85
2023/04/16 01:26:41;;;;;;;14.70;4.27;;;;;;;15.89;nan;101451.56;4866378;29;20454;-85
2023/04/16 01:29:08;;;;;;;17.67;4.47;;;;;;;15.84;nan;101440.31;4881411;29;20890;-85
2023/04/16 01:31:36;;;;;;;22.07;3.70;;;;;;;15.78;nan;101425.47;4881429;29;20446;-85
2023/04/16 01:34:04;;;;;;;25.30;4.20;;;;;;;15.83;nan;101436.72;4885766;29;20461;-85
2023/04/16 01:36:31;;;;;;;18.40;4.20;;;;;;;15.77;nan;101415.53;4869480;29;20524;-85
2023/04/16 01:38:59;;;;;;;18.83;4.70;;;;;;;15.71;nan;101407.25;4884696;29;20452;-85
2023/04/16 01:41:27;;;;;;;22.80;4.67;;;;;;;15.76;nan;101412.97;4899806;29;20465;-85
2023/04/16 01:43:56;;;;;;;16.77;4.07;;;;;;;15.77;nan;101429.31;4899424;29;20483;-85
2023/04/16 01:46:30;;;;;;;33.57;4.27;;;;;;;15.74;nan;101413.19;4916438;29;20457;-87
2023/04/16 01:48:57;;;;;;;15.60;4.70;;;;;;;15.64;nan;101406.38;4866298;29;20465;-85
2023/04/16 01:51:26;;;;;;;30.00;5.40;;;;;;;15.66;nan;101413.38;4881381;29;20502;-85
2023/04/16 01:53:54;;;;;;;20.07;5.43;;;;;;;15.60;nan;101400.44;4883229;29;20489;-85
2023/04/16 01:56:21;;;;;;;24.03;5.33;;;;;;;15.59;nan;101408.94;4884476;29;20453;-85
2023/04/16 01:58:49;;;;;;;20.33;5.03;;;;;;;15.54;nan;101399.34;4869182;29;20516;-85
2023/04/16 02:01:17;;;;;;;14.03;3.50;;;;;;;15.49;nan;101398.28;4868533;29;20457;-86
2023/04/16 02:03:45;;;;;;;14.60;3.33;;;;;;;15.47;nan;101392.13;4869073;29;20460;-86
2023/04/16 02:06:14;;;;;;;16.63;3.90;;;;;;;15.40;nan;101381.09;4884726;29;20460;-85
2023/04/16 02:08:42;;;;;;;14.70;3.23;;;;;;;15.50;nan;101399.97;4884055;29;20460;-86
2023/04/16 02:11:10;;;;;;;11.80;2.43;;;;;;;15.45;nan;101388.75;4880249;29;20960;-85
2023/04/16 02:13:40;;;;;;;10.90;2.60;;;;;;;15.44;nan;101390.63;4884054;29;20504;-86
2023/04/16 02:16:07;;;;;;;12.60;3.30;;;;;;;15.44;nan;101392.53;4916080;29;20459;-85
2023/04/16 02:18:35;;;;;;;10.50;2.90;;;;;;;15.36;nan;101373.47;4873400;29;20458;-86
2023/04/16 02:21:05;;;;;;;15.63;3.50;;;;;;;15.37;nan;101373.28;4867541;29;20449;-85
2023/04/16 02:23:33;;;;;;;9.00;2.60;;;;;;;15.37;nan;101377.94;4855681;29;20469;-85
2023/04/16 02:26:02;;;;;;;8.83;3.00;;;;;;;15.33;nan;101371.16;4903097;29;20461;-85
2023/04/16 02:28:29;;;;;;;8.80;2.60;;;;;;;15.23;nan;101356.91;4871888;29;20827;-86
2023/04/16 02:30:57;;;;;;;15.17;2.40;;;;;;;15.26;nan;101362.88;4887620;29;20457;-86
2023/04/16 02:33:26;;;;;;;8.80;2.70;;;;;;;15.18;nan;101357.56;4872762;29;20504;-86
2023/04/16 02:35:53;;;;;;;7.67;2.60;;;;;;;15.16;nan;101355.03;4903412;29;20508;-86
2023/04/16 02:38:21;;;;;;;13.00;2.67;;;;;;;15.18;nan;101352.91;4903121;29;20495;-85
2023/04/16 02:40:49;;;;;;;8.00;2.80;;;;;;;15.19;nan;101368.38;4887437;29;20452;-85
2023/04/16 02:43:18;;;;;;;9.40;2.47;;;;;;;15.13;nan;101360.94;4903092;29;20452;-86
2023/04/16 02:45:47;;;;;;;6.43;2.27;;;;;;;15.01;nan;101348.81;4845838;29;20447;-85
2023/04/16 02:48:16;;;;;;;10.03;2.20;;;;;;;14.89;nan;101353.25;4830687;29;20463;-86
2023/04/16 02:50:44;;;;;;;7.70;2.67;;;;;;;14.79;nan;101350.06;4845945;29;21030;-85
2023/04/16 02:53:14;;;;;;;8.10;1.97;;;;;;;14.71;nan;101347.47;4830274;29;20888;-85
2023/04/16 02:55:53;;;;;;;7.90;2.10;;;;;;;14.65;nan;101351.91;4845583;29;20990;-85
2023/04/16 02:58:21;;;;;;;5.73;2.33;;;;;;;14.55;nan;101347.84;4816658;29;20859;-85
2023/04/16 03:00:50;;;;;;;4.47;2.07;;;;;;;14.45;nan;101349.06;4829360;29;20463;-86
2023/04/16 03:03:17;;;;;;;14.37;2.47;;;;;;;14.40;nan;101342.47;4812550;29;20464;-85
2023/04/16 03:05:45;;;;;;;9.90;2.40;;;;;;;14.24;nan;101321.63;4812586;29;20460;-85
2023/04/16 03:08:12;;;;;;;9.87;2.13;;;;;;;14.22;nan;101329.25;4812456;29;20461;-85
2023/04/16 03:10:40;;;;;;;8.30;2.10;;;;;;;14.17;nan;101331.75;4856460;29;20515;-85
2023/04/16 03:13:08;;;;;;;8.20;2.20;;;;;;;14.10;nan;101341.84;4871914;29;20497;-85
2023/04/16 03:15:37;;;;;;;7.23;1.97;;;;;;;14.03;nan;101335.50;4886790;29;20475;-86
2023/04/16 03:18:05;;;;;;;7.70;2.70;;;;;;;13.98;nan;101335.25;4902477;29;20460;-85
2023/04/16 03:20:32;;;;;;;6.10;2.40;;;;;;;13.85;nan;101326.91;4886684;29;20480;-85
2023/04/16 03:23:00;;;;;;;5.43;2.10;;;;;;;13.84;nan;101328.81;4887058;29;20456;-85
2023/04/16 03:25:28;;;;;;;10.83;2.23;;;;;;;13.75;nan;101327.25;4886985;29;20453;-86
2023/04/16 03:27:56;;;;;;;6.20;1.90;;;;;;;13.69;nan;101322.56;4871647;29;20524;-85
2023/04/16 03:30:23;;;;;;;5.33;1.90;;;;;;;13.69;nan;101325.31;4902057;29;20476;-85
2023/04/16 03:32:51;;;;;;;7.70;2.50;;;;;;;13.69;nan;101328.91;4885926;29;20488;-85
2023/04/16 03:35:19;;;;;;;8.97;1.83;;;;;;;13.63;nan;101324.22;4886519;29;20456;-85
2023/04/16 03:37:49;;;;;;;8.20;1.90;;;;;;;13.59;nan;101331.16;4902246;29;20453;-85
2023/04/16 03:40:16;;;;;;;4.77;1.43;;;;;;;13.48;nan;101324.28;4886774;29;20820;-85
2023/04/16 03:42:45;;;;;;;8.07;2.17;;;;;;;13.43;nan;101328.72;4918278;29;20484;-85
2023/04/16 03:45:13;;;;;;;6.40;1.97;;;;;;;13.35;nan;101315.97;4886578;29;20453;-85
2023/04/16 03:47:42;;;;;;;6.97;1.87;;;;;;;13.32;nan;101321.84;4886291;29;20463;-86
2023/04/16 03:50:12;;;;;;;3.67;1.50;;;;;;;13.23;nan;101322.19;4901683;29;20461;-85
2023/04/16 03:52:40;;;;;;;6.07;2.80;;;;;;;13.09;nan;101311.03;4918255;29;20489;-85
2023/04/16 03:55:08;;;;;;;8.90;2.03;;;;;;;13.10;nan;101322.88;4870956;29;20461;-85
2023/04/16 03:57:36;;;;;;;3.37;1.73;;;;;;;13.04;nan;101330.00;4870020;29;20797;-85
2023/04/16 04:00:04;;;;;;;3.67;1.57;;;;;;;12.91;nan;101313.38;4886055;29;20449;-85
2023/04/16 04:02:32;;;;;;;10.53;1.97;;;;;;;12.91;nan;101337.22;4884806;29;20508;-85
2023/04/16 04:05:01;;;;;;;4.03;1.40;;;;;;;12.85;nan;101321.56;4870872;29;20468;-86
2023/04/16 04:07:29;;;;;;;3.67;1.60;;;;;;;12.75;nan;101316.38;4886023;29;20453;-85
2023/04/16 04:09:57;;;;;;;4.63;1.70;;;;;;;12.73;nan;101318.47;4886012;29;20457;-85
2023/04/16 04:12:26;;;;;;;4.47;1.33;;;;;;;12.66;nan;101309.34;4885410;29;20453;-85
2023/04/16 04:14:53;;;;;;;4.93;1.67;;;;;;;12.64;nan;101309.53;4868760;29;20503;-86
2023/04/16 04:17:22;;;;;;;14.43;1.97;;;;;;;12.63;nan;101313.31;4901377;29;20530;-86
2023/04/16 04:19:51;;;;;;;5.47;1.60;;;;;;;12.49;nan;101305.13;4917949;29;20448;-85
2023/04/16 04:22:27;;;;;;;4.60;1.80;;;;;;;12.48;nan;101301.53;4888529;29;20457;-85
2023/04/16 04:24:55;;;;;;;6.17;1.67;;;;;;;12.50;nan;101309.56;4885528;29;20457;-86
2023/04/16 04:27:22;;;;;;;2.90;1.33;;;;;;;12.48;nan;101303.44;4870147;29;20461;-85
2023/04/16 04:29:49;;;;;;;4.70;1.57;;;;;;;12.51;nan;101305.78;4901022;29;20481;-85
2023/04/16 04:32:17;;;;;;;3.70;1.50;;;;;;;12.49;nan;101303.25;4870644;29;20535;-86
2023/04/16 04:34:46;;;;;;;7.73;1.50;;;;;;;12.43;nan;101304.84;4869909;29;20481;-86
2023/04/16 04:37:13;;;;;;;8.50;2.07;;;;;;;12.40;nan;101307.13;4885297;29;20519;-85
2023/04/16 04:39:41;;;;;;;3.03;1.40;;;;;;;12.34;nan;101303.25;4917372;29;20453;-86
2023/04/16 04:42:09;;;;;;;4.17;1.73;;;;;;;12.26;nan;101300.63;4908977;29;20464;-84
2023/04/16 04:44:36;;;;;;;8.23;1.80;;;;;;;12.31;nan;101308.28;4897162;29;20446;-85
2023/04/16 04:47:04;;;;;;;5.10;1.87;;;;;;;12.29;nan;101308.47;4898486;29;20457;-85
2023/04/16 04:49:32;;;;;;;3.63;1.50;;;;;;;12.24;nan;101304.59;4868351;29;20453;-85
2023/04/16 04:52:00;;;;;;;3.00;1.57;;;;;;;12.18;nan;101300.72;4885327;29;20449;-84
2023/04/16 04:54:30;;;;;;;5.10;1.60;;;;;;;12.15;nan;101306.56;4870183;29;20499;-85
2023/04/16 04:56:58;;;;;;;3.77;1.50;;;;;;;12.06;nan;101291.28;4899882;29;20524;-86
2023/04/16 04:59:26;;;;;;;5.17;1.43;;;;;;;12.03;nan;101297.16;4869774;29;20483;-86
2023/04/16 05:01:53;;;;;;;3.70;1.40;;;;;;;11.93;nan;101288.38;4900210;29;20527;-83
2023/04/16 05:04:21;;;;;;;6.60;2.27;;;;;;;11.98;nan;101299.59;4917018;29;20453;-84
2023/04/16 05:06:49;;;;;;;1.97;1.00;;;;;;;11.95;nan;101295.34;4869851;29;20459;-86
2023/04/16 05:09:17;;;;;;;2.00;1.17;;;;;;;11.95;nan;101291.75;4884501;29;20464;-85
2023/04/16 05:11:45;;;;;;;6.13;1.70;;;;;;;11.89;nan;101298.00;4916703;29;20459;-85
2023/04/16 05:14:13;;;;;;;5.60;1.63;;;;;;;11.83;nan;101296.00;4883741;29;20489;-86
2023/04/16 05:16:42;;;;;;;4.50;1.23;;;;;;;11.76;nan;101291.28;4877917;29;20449;-85
2023/04/16 05:19:10;;;;;;;8.90;2.07;;;;;;;11.73;nan;101297.13;4866561;29;20454;-85
2023/04/16 05:21:38;;;;;;;3.90;1.93;;;;;;;11.69;nan;101284.84;4894514;29;20958;-86
2023/04/16 05:24:06;;;;;;;5.17;1.80;;;;;;;11.66;nan;101290.69;4884780;29;20461;-86
2023/04/16 05:26:35;;;;;;;9.63;1.97;;;;;;;11.59;nan;101278.78;4869820;29;20936;-87
2023/04/16 05:29:03;;;;;;;9.93;1.73;;;;;;;11.57;nan;101264.44;4899640;29;20544;-85
2023/04/16 05:31:31;;;;;;;9.13;2.10;;;;;;;11.65;nan;101275.28;4884647;29;20465;-85
2023/04/16 05:33:59;;;;;;;3.87;1.60;;;;;;;11.60;nan;101285.94;4869895;29;20860;-85
2023/04/16 05:36:28;;;;;;;7.23;1.70;;;;;;;11.53;nan;101271.34;4881506;29;20945;-85
2023/04/16 05:38:56;;;;;;;8.43;1.50;;;;;;;11.65;nan;101294.47;4881580;29;20449;-85
2023/04/16 05:41:23;;;;;;;4.57;1.20;;;;;;;11.69;nan;101293.06;4860054;29;20520;-85
2023/04/16 05:43:51;;;;;;;6.73;2.20;;;;;;;11.69;nan;101290.31;4851025;29;20453;-85
2023/04/16 05:46:18;;;;;;;9.23;1.50;;;;;;;11.71;nan;101306.56;4866119;29;20522;-85
2023/04/16 05:48:46;;;;;;;12.83;1.70;;;;;;;11.72;nan;101306.38;4866215;29;20460;-85
2023/04/16 05:51:13;;;;;;;4.43;1.50;;;;;;;11.72;nan;101306.38;4881365;29;20831;-85
2023/04/16 05:53:41;;;;;;;4.37;1.60;;;;;;;11.71;nan;101310.16;4897653;29;20544;-87
2023/04/16 05:56:09;;;;;;;4.47;2.20;;;;;;;11.67;nan;101303.34;4870609;29;21025;-85
2023/04/16 05:58:37;;;;;;;6.30;1.80;;;;;;;11.66;nan;101303.53;4873221;29;20453;-85
2023/04/16 06:01:06;;;;;;;3.07;1.60;;;;;;;11.61;nan;101305.97;4887983;29;20463;-86
2023/04/16 06:03:34;;;;;;;4.43;1.77;;;;;;;11.57;nan;101300.00;4887947;29;20503;-85
2023/04/16 06:06:02;;;;;;;6.00;1.67;;;;;;;11.70;nan;101319.41;4888184;29;20456;-85
2023/04/16 06:08:31;;;;;;;8.10;2.10;;;;;;;11.75;nan;101319.66;4888169;29;20456;-84
2023/04/16 06:10:58;;;;;;;4.57;1.60;;;;;;;11.80;nan;101316.41;4872804;29;20448;-84
2023/04/16 06:13:26;;;;;;;7.10;1.53;;;;;;;11.83;nan;101329.72;4884017;29;20514;-86
2023/04/16 06:15:53;;;;;;;8.33;2.20;;;;;;;11.86;nan;101323.03;4886248;29;20468;-85
2023/04/16 06:18:21;;;;;;;3.50;1.80;;;;;;;11.85;nan;101326.81;4888233;29;20449;-85
2023/04/16 06:20:50;;;;;;;6.50;1.47;;;;;;;11.89;nan;101331.72;4886924;29;20845;-85
2023/04/16 06:23:17;;;;;;;7.33;2.20;;;;;;;11.96;nan;101329.06;4903306;29;20461;-85
2023/04/16 06:25:45;;;;;;;5.33;1.93;;;;;;;11.99;nan;101328.69;4887587;29;20984;-85
2023/04/16 06:28:15;;;;;;;4.27;1.47;;;;;;;12.04;nan;101334.47;4887540;29;20452;-85
2023/04/16 06:30:43;;;;;;;5.90;2.10;;;;;;;11.93;nan;101315.78;4919945;29;20452;-85
2023/04/16 06:33:12;;;;;;;10.17;2.63;;;;;;;12.08;nan;101339.38;4887729;29;20453;-85
2023/04/16 06:35:39;;;;;;;4.43;1.60;;;;;;;12.13;nan;101335.19;4887794;29;20456;-85
2023/04/16 06:38:07;;;;;;;10.43;1.77;;;;;;;12.17;nan;101337.38;4869277;29;20509;-86
2023/04/16 06:40:36;;;;;;;5.73;1.90;;;;;;;12.22;nan;101336.81;4868748;29;20889;-85
2023/04/16 06:43:05;;;;;;;7.10;1.93;;;;;;;12.28;nan;101339.66;4884587;29;20469;-85
2023/04/16 06:45:36;;;;;;;6.57;2.80;;;;;;;12.29;nan;101333.13;4901439;29;20829;-85
2023/04/16 06:48:04;;;;;;;5.00;1.90;;;;;;;12.34;nan;101338.88;4887780;29;20460;-85
2023/04/16 06:50:33;;;;;;;3.10;1.27;;;;;;;12.41;nan;101338.97;4872576;29;20452;-85
2023/04/16 06:53:01;;;;;;;6.07;1.53;;;;;;;12.50;nan;101345.22;4902858;29;20449;-86
2023/04/16 06:55:29;;;;;;;6.30;2.00;;;;;;;12.56;nan;101341.69;4887117;29;20464;-85
2023/04/16 06:57:57;;;;;;;9.60;1.73;;;;;;;12.65;nan;101343.28;4902681;29;20977;-84
2023/04/16 07:00:25;;;;;;;8.93;1.93;;;;;;;12.75;nan;101343.81;4902456;29;20982;-85
2023/04/16 07:02:53;;;;;;;14.77;2.13;;;;;;;12.84;nan;101339.91;4883408;29;20948;-85
2023/04/16 07:05:24;;;;;;;10.30;1.83;;;;;;;12.95;nan;101339.41;4884444;29;20827;-85
2023/04/16 07:07:52;;;;;;;5.77;1.73;;;;;;;13.06;nan;101341.63;4882775;29;20461;-85
2023/04/16 07:10:20;;;;;;;10.17;2.23;;;;;;;13.17;nan;101350.41;4886762;29;20460;-85
2023/04/16 07:12:47;;;;;;;13.33;2.30;;;;;;;13.24;nan;101343.09;4885482;29;20866;-85
2023/04/16 07:15:15;;;;;;;7.17;2.20;;;;;;;13.38;nan;101348.50;4887208;29;20496;-85
2023/04/16 07:17:43;;;;;;;8.30;2.60;;;;;;;13.47;nan;101335.47;4872253;29;20456;-85
2023/04/16 07:20:11;;;;;;;5.13;2.10;;;;;;;13.57;nan;101340.66;4886706;29;20951;-85
2023/04/16 07:22:38;;;;;;;6.83;2.33;;;;;;;13.73;nan;101346.69;4870912;29;20452;-86
2023/04/16 07:25:07;;;;;;;6.93;2.43;;;;;;;13.83;nan;101338.97;4886978;29;20519;-84
2023/04/16 07:27:35;;;;;;;4.97;2.50;;;;;;;13.99;nan;101334.19;4894031;29;20457;-86
2023/04/16 07:30:04;;;;;;;8.03;2.30;;;;;;;14.15;nan;101344.84;4902160;29;20823;-86
2023/04/16 07:32:33;;;;;;;9.47;4.10;;;;;;;14.29;nan;101343.03;4887083;29;20464;-85
2023/04/16 07:35:02;;;;;;;9.97;2.93;;;;;;;14.52;nan;101352.69;4823509;29;20492;-85
2023/04/16 07:37:31;;;;;;;4.83;2.13;;;;;;;14.70;nan;101343.88;4808789;29;20458;-85
2023/04/16 07:39:59;;;;;;;6.17;2.23;;;;;;;14.92;nan;101344.59;4823606;29;20465;-85
2023/04/16 07:42:27;;;;;;;8.13;2.70;;;;;;;15.18;nan;101350.16;4808740;29;20458;-85
2023/04/16 07:44:54;;;;;;;6.47;2.40;;;;;;;15.44;nan;101351.22;4779145;29;20461;-85
2023/04/16 07:47:22;;;;;;;7.53;2.40;;;;;;;15.71;nan;101352.97;4808611;29;20460;-85
2023/04/16 07:49:52;;;;;;;3.23;2.03;;;;;;;15.97;nan;101354.00;4823652;29;20459;-85
2023/04/16 07:52:20;;;;;;;5.27;1.80;;;;;;;16.23;nan;101349.28;4835669;29;20480;-85
2023/04/16 07:54:48;;;;;;;8.60;2.30;;;;;;;15.10;nan;101108.06;4894265;29;21007;-86
2023/04/16 07:57:16;;;;;;;6.13;2.07;;;;;;;16.86;nan;101345.88;4871387;29;20520;-86
2023/04/16 08:03:53;;;;;;;4.40;1.77;;;;;;;17.69;nan;101354.91;4841939;29;20451;-86
2023/04/16 08:06:30;;;;;;;11.13;1.87;;;;;;;17.85;nan;101332.22;4827122;29;20461;-86
2023/04/16 08:09:21;;;;;;;2.90;1.17;;;;;;;18.15;nan;101335.06;4817374;29;20452;-86
2023/04/16 08:11:49;;;;;;;4.90;1.63;;;;;;;18.38;nan;101342.69;4811552;29;20456;-86
2023/04/16 08:14:23;;;;;;;6.33;1.67;;;;;;;18.47;nan;101327.44;4827293;29;21046;-86
2023/04/16 08:17:05;;;;;;;6.63;1.70;;;;;;;18.75;nan;101339.94;4839235;29;20476;-85
2023/04/16 08:20:05;;;;;;;7.93;1.57;;;;;;;19.02;nan;101346.81;4800820;29;20845;-85
2023/04/16 08:22:41;;;;;;;6.17;1.20;;;;;;;19.07;nan;101324.75;4827270;29;20456;-85
2023/04/16 08:25:38;;;;;;;6.53;1.37;;;;;;;19.30;nan;101333.16;4812886;29;20528;-85
2023/04/16 08:28:21;;;;;;;3.50;1.23;;;;;;;19.55;nan;101340.47;4826756;29;20452;-85
2023/04/16 08:30:53;;;;;;;6.90;1.03;;;;;;;19.72;nan;101346.16;4799492;29;20464;-86
2023/04/16 08:33:42;;;;;;;5.13;1.27;;;;;;;19.86;nan;101337.34;4827113;29;20456;-86
2023/04/16 08:36:15;;;;;;;12.83;2.00;;;;;;;19.95;nan;101324.81;4827754;29;20959;-86
2023/04/16 08:38:47;;;;;;;4.00;1.40;;;;;;;20.11;nan;101330.72;4809994;29;21089;-86
2023/04/16 08:41:32;;;;;;;4.57;1.30;;;;;;;20.36;nan;101336.84;4886850;29;20465;-85
2023/04/16 08:44:07;;;;;;;4.47;1.30;;;;;;;20.50;nan;101343.00;4867956;29;20477;-86
2023/04/16 08:46:38;;;;;;;7.80;1.53;;;;;;;20.49;nan;101336.63;4882577;29;20465;-86
2023/04/16 08:53:06;;;;;;;10.80;1.70;;;;;;;20.90;nan;101341.09;4797878;29;20449;-86
2023/04/16 08:55:48;;;;;;;5.30;1.27;;;;;;;20.92;nan;101338.06;4797932;29;20492;-86
2023/04/16 08:58:24;;;;;;;6.70;1.30;;;;;;;21.07;nan;101338.34;4814980;29;20464;-87
2023/04/16 09:01:02;;;;;;;4.83;1.23;;;;;;;21.23;nan;101343.13;4821097;29;20445;-86
2023/04/16 09:03:33;;;;;;;3.50;1.30;;;;;;;21.31;nan;101339.09;4840839;29;20461;-86
2023/04/16 09:06:06;;;;;;;4.57;1.10;;;;;;;21.51;nan;101356.16;4825034;29;20463;-86
2023/04/16 09:08:34;;;;;;;3.50;1.10;;;;;;;21.60;nan;101348.22;4824042;29;20461;-86
2023/04/16 09:11:02;;;;;;;6.60;1.30;;;;;;;21.68;nan;101351.44;4825537;29;20445;-85
2023/04/16 09:13:32;;;;;;;4.57;1.50;;;;;;;21.82;nan;101345.53;4825592;29;20885;-85
2023/04/16 09:16:00;;;;;;;8.50;1.43;;;;;;;21.94;nan;101349.91;4825498;29;20995;-85
2023/04/16 09:18:30;;;;;;;4.93;0.80;;;;;;;21.99;nan;101346.34;4825585;29;20452;-86
2023/04/16 09:20:57;;;;;;;8.00;1.40;;;;;;;22.14;nan;101362.47;4839460;29;20472;-86
2023/04/16 09:23:25;;;;;;;3.83;1.10;;;;;;;22.26;nan;101352.94;4805860;29;20475;-86
2023/04/16 09:25:54;;;;;;;9.20;1.80;;;;;;;22.42;nan;101355.94;4810148;29;20452;-86
2023/04/16 09:28:40;;;;;;;4.90;1.33;;;;;;;22.68;nan;101363.53;4824959;29;20456;-86
2023/04/16 09:31:31;;;;;;;8.50;1.77;;;;;;;22.83;nan;101362.91;4899215;29;20827;-86
2023/04/16 09:34:08;;;;;;;6.20;1.17;;;;;;;22.95;nan;101370.03;4872087;29;20449;-86
2023/04/16 09:36:36;;;;;;;9.30;1.10;;;;;;;23.07;nan;101369.91;4885021;29;20448;-85
2023/04/16 09:39:04;;;;;;;3.10;0.90;;;;;;;23.17;nan;101358.84;4883541;29;20966;-86
2023/04/16 09:41:34;;;;;;;7.63;1.00;;;;;;;23.29;nan;101351.16;4870663;29;20461;-86
2023/04/16 09:44:03;;;;;;;5.50;1.23;;;;;;;23.54;nan;101366.50;4899724;29;20464;-86
2023/04/16 09:46:35;;;;;;;3.93;1.50;;;;;;;23.69;nan;101366.63;4867118;29;20457;-85
2023/04/16 09:49:16;;;;;;;7.17;1.70;;;;;;;23.87;nan;101377.38;4866439;29;20446;-86
2023/04/16 09:51:48;;;;;;;6.90;1.40;;;;;;;24.00;nan;101371.38;4866534;29;20457;-85
2023/04/16 09:54:16;;;;;;;7.27;1.57;;;;;;;24.22;nan;101370.41;4884951;29;20481;-85
2023/04/16 09:56:45;;;;;;;7.03;1.27;;;;;;;24.35;nan;101370.78;4900078;29;20453;-85
2023/04/16 09:59:19;;;;;;;9.73;1.20;;;;;;;24.50;nan;101366.38;4899958;29;20465;-86
2023/04/16 10:01:52;;;;;;;3.10;1.03;;;;;;;24.65;nan;101375.69;4887006;29;20448;-86
2023/04/16 10:04:50;;;;;;;10.90;1.23;;;;;;;24.86;nan;101370.19;4889555;29;20488;-87
2023/04/16 10:07:18;;;;;;;12.07;1.20;;;;;;;25.00;nan;101354.63;4909021;29;20464;-86
2023/04/16 10:09:47;;;;;;;4.83;1.07;;;;;;;25.16;nan;101363.91;4884220;29;20464;-86
2023/04/16 10:12:15;;;;;;;7.70;1.30;;;;;;;25.25;nan;101363.06;4883976;29;20453;-86
2023/04/16 10:14:43;;;;;;;5.00;1.30;;;;;;;25.41;nan;101361.97;4877987;29;20485;-87
2023/04/16 10:17:12;;;;;;;7.83;1.50;;;;;;;25.58;nan;101355.31;4883302;29;20512;-86
2023/04/16 10:19:40;;;;;;;3.70;1.00;;;;;;;25.64;nan;101348.59;4884354;29;20867;-86
2023/04/16 10:22:08;;;;;;;3.63;1.20;;;;;;;25.78;nan;101355.34;4884358;29;20453;-86
2023/04/16 10:24:36;;;;;;;3.50;1.17;;;;;;;25.93;nan;101358.13;4899132;29;20461;-86
2023/04/16 10:27:04;;;;;;;10.10;1.30;;;;;;;26.00;nan;101339.03;4899277;29;20982;-86
2023/04/16 10:29:32;;;;;;;6.00;1.20;;;;;;;26.13;nan;101335.69;4899312;29;20487;-86
2023/04/16 10:32:00;;;;;;;5.00;1.13;;;;;;;26.28;nan;101336.75;4868939;29;20544;-86
2023/04/16 10:34:28;;;;;;;4.90;1.37;;;;;;;26.41;nan;101331.41;4884046;29;20856;-86
2023/04/16 10:36:56;;;;;;;6.53;1.50;;;;;;;26.56;nan;101332.47;4899806;29;20449;-86
2023/04/16 10:39:26;;;;;;;7.00;1.60;;;;;;;26.73;nan;101336.66;4867993;29;20440;-86
2023/04/16 10:42:08;;;;;;;8.47;1.70;;;;;;;26.81;nan;101335.19;4884878;29;20558;-86
2023/04/16 10:44:36;;;;;;;9.73;1.40;;;;;;;26.84;nan;101335.47;4872291;29;20468;-85
2023/04/16 10:47:11;;;;;;;2.50;1.27;;;;;;;27.00;nan;101332.59;4871298;29;20452;-87
2023/04/16 10:49:42;;;;;;;6.13;1.27;;;;;;;27.06;nan;101331.44;4886338;29;20463;-86
2023/04/16 10:52:15;;;;;;;8.00;2.00;;;;;;;27.20;nan;101328.81;4918558;29;20493;-86
2023/04/16 10:54:43;;;;;;;8.87;1.53;;;;;;;27.31;nan;101311.63;4870731;29;20881;-87
2023/04/16 10:57:18;;;;;;;9.00;1.80;;;;;;;27.48;nan;101317.69;4869041;29;20446;-87
2023/04/16 10:59:50;;;;;;;6.97;1.63;;;;;;;27.69;nan;101324.00;4886495;29;20452;-87
2023/04/16 11:02:23;;;;;;;3.47;1.10;;;;;;;27.53;nan;101300.75;4870268;29;20442;-87
2023/04/16 11:05:25;;;;;;;4.57;1.60;;;;;;;27.77;nan;101294.41;4884191;29;20453;-87
2023/04/16 11:10:57;;;;;;;7.00;1.50;;;;;;;28.10;nan;101296.31;4854784;29;20454;-86
2023/04/16 11:13:47;;;;;;;4.10;1.30;;;;;;;28.32;nan;101289.34;4839574;29;20443;-87
2023/04/16 11:16:16;;;;;;;7.90;1.43;;;;;;;28.52;nan;101303.16;4837761;29;20486;-86
2023/04/16 11:18:44;;;;;;;2.57;0.80;;;;;;;28.68;nan;101299.00;4863232;29;20478;-87
2023/04/16 11:21:17;;;;;;;3.03;1.20;;;;;;;28.77;nan;101305.66;4834631;29;20455;-86
2023/04/16 11:23:47;;;;;;;3.40;0.90;;;;;;;28.92;nan;101306.63;4846282;29;20450;-86
2023/04/16 11:26:27;;;;;;;6.10;1.40;;;;;;;29.02;nan;101306.47;4879264;29;20458;-87
2023/04/16 11:28:59;;;;;;;4.97;0.70;;;;;;;29.05;nan;101294.63;4861242;29;20478;-87
2023/04/16 11:31:29;;;;;;;3.43;1.17;;;;;;;29.20;nan;101300.00;4861935;29;20456;-87
2023/04/16 11:33:58;;;;;;;6.00;1.00;;;;;;;29.30;nan;101291.38;4867313;29;20458;-87
2023/04/16 11:36:28;;;;;;;7.70;1.13;;;;;;;29.39;nan;101292.41;4847951;29;20478;-87
2023/04/16 11:39:01;;;;;;;7.27;1.50;;;;;;;29.52;nan;101288.81;4878284;29;21020;-87
2023/04/16 11:41:28;;;;;;;11.30;1.00;;;;;;;29.59;nan;101288.41;4863752;29;20458;-86
2023/04/16 11:43:56;;;;;;;4.83;1.07;;;;;;;29.71;nan;101290.75;4857546;29;20474;-87
2023/04/16 11:46:25;;;;;;;9.77;1.40;;;;;;;29.81;nan;101291.41;4862154;29;20918;-87
2023/04/16 11:48:56;;;;;;;4.10;1.03;;;;;;;29.89;nan;101278.56;4884085;29;20456;-87
2023/04/16 11:51:26;;;;;;;3.23;0.80;;;;;;;29.94;nan;101272.84;4866805;29;20851;-87
2023/04/16 11:53:55;;;;;;;4.67;1.03;;;;;;;30.10;nan;101277.06;4899065;29;20464;-87
2023/04/16 11:56:31;;;;;;;11.97;1.33;;;;;;;30.20;nan;101271.22;4883032;29;20527;-86
2023/04/16 11:59:12;;;;;;;9.30;1.10;;;;;;;30.25;nan;101261.81;4863847;29;20444;-86
2023/04/16 12:01:41;;;;;;;9.37;1.63;;;;;;;30.33;nan;101263.06;4886300;29;20452;-87